sensor_id;sensor_type;location;lat;lon;timestamp;P1;durP1;ratioP1;P2;durP2;ratioP2
25936;SDS011;13733;51.178;4.450;2023-05-28T00:01:03;19.63;;;9.48;;
25936;SDS011;13733;51.178;4.450;2023-05-28T00:03:29;20.38;;;9.07;;
25936;SDS011;13733;51.178;4.450;2023-05-28T00:05:57;14.85;;;8.55;;
25936;SDS011;13733;51.178;4.450;2023-05-28T00:08:23;24.45;;;9.15;;
25936;SDS011;13733;51.178;4.450;2023-05-28T00:10:49;23.55;;;9.60;;
25936;SDS011;13733;51.178;4.450;2023-05-28T00:13:15;23.23;;;8.82;;
25936;SDS011;13733;51.178;4.450;2023-05-28T00:15:42;28.17;;;9.98;;
25936;SDS011;13733;51.178;4.450;2023-05-28T00:18:09;22.83;;;9.32;;
25936;SDS011;13733;51.178;4.450;2023-05-28T00:23:05;34.67;;;9.52;;
25936;SDS011;13733;51.178;4.450;2023-05-28T00:25:31;24.27;;;9.43;;
25936;SDS011;13733;51.178;4.450;2023-05-28T00:27:56;27.58;;;10.25;;
25936;SDS011;13733;51.178;4.450;2023-05-28T00:30:22;22.48;;;10.07;;
25936;SDS011;13733;51.178;4.450;2023-05-28T00:32:50;24.58;;;10.55;;
25936;SDS011;13733;51.178;4.450;2023-05-28T00:35:15;23.88;;;9.90;;
25936;SDS011;13733;51.178;4.450;2023-05-28T00:37:41;27.30;;;10.52;;
25936;SDS011;13733;51.178;4.450;2023-05-28T00:40:07;23.88;;;9.55;;
25936;SDS011;13733;51.178;4.450;2023-05-28T00:42:33;29.13;;;10.18;;
25936;SDS011;13733;51.178;4.450;2023-05-28T00:44:59;24.50;;;9.82;;
25936;SDS011;13733;51.178;4.450;2023-05-28T00:47:25;24.73;;;9.55;;
25936;SDS011;13733;51.178;4.450;2023-05-28T00:49:52;21.45;;;10.60;;
25936;SDS011;13733;51.178;4.450;2023-05-28T00:52:19;27.45;;;10.40;;
25936;SDS011;13733;51.178;4.450;2023-05-28T00:54:46;21.23;;;10.52;;
25936;SDS011;13733;51.178;4.450;2023-05-28T00:57:13;29.10;;;10.75;;
25936;SDS011;13733;51.178;4.450;2023-05-28T00:59:40;24.98;;;10.10;;
25936;SDS011;13733;51.178;4.450;2023-05-28T01:02:08;23.83;;;11.05;;
25936;SDS011;13733;51.178;4.450;2023-05-28T01:04:33;24.42;;;10.98;;
25936;SDS011;13733;51.178;4.450;2023-05-28T01:07:01;24.58;;;10.57;;
25936;SDS011;13733;51.178;4.450;2023-05-28T01:09:27;25.02;;;10.80;;
25936;SDS011;13733;51.178;4.450;2023-05-28T01:11:52;25.60;;;10.88;;
25936;SDS011;13733;51.178;4.450;2023-05-28T01:14:19;28.70;;;10.27;;
25936;SDS011;13733;51.178;4.450;2023-05-28T01:16:46;23.70;;;10.82;;
25936;SDS011;13733;51.178;4.450;2023-05-28T01:19:15;30.63;;;11.18;;
25936;SDS011;13733;51.178;4.450;2023-05-28T01:21:45;24.35;;;10.90;;
25936;SDS011;13733;51.178;4.450;2023-05-28T01:24:13;25.75;;;10.48;;
25936;SDS011;13733;51.178;4.450;2023-05-28T01:26:42;29.65;;;10.80;;
25936;SDS011;13733;51.178;4.450;2023-05-28T01:29:14;28.70;;;11.20;;
25936;SDS011;13733;51.178;4.450;2023-05-28T01:31:42;26.00;;;11.32;;
25936;SDS011;13733;51.178;4.450;2023-05-28T01:34:09;25.58;;;11.13;;
25936;SDS011;13733;51.178;4.450;2023-05-28T01:36:36;27.25;;;11.10;;
25936;SDS011;13733;51.178;4.450;2023-05-28T01:39:07;25.80;;;10.55;;
25936;SDS011;13733;51.178;4.450;2023-05-28T01:41:38;25.70;;;11.65;;
25936;SDS011;13733;51.178;4.450;2023-05-28T01:44:04;30.92;;;12.27;;
25936;SDS011;13733;51.178;4.450;2023-05-28T01:46:32;31.20;;;13.00;;
25936;SDS011;13733;51.178;4.450;2023-05-28T01:48:58;26.83;;;12.15;;
25936;SDS011;13733;51.178;4.450;2023-05-28T01:51:25;28.13;;;11.95;;
25936;SDS011;13733;51.178;4.450;2023-05-28T01:53:52;29.50;;;12.45;;
25936;SDS011;13733;51.178;4.450;2023-05-28T01:56:18;28.92;;;12.35;;
25936;SDS011;13733;51.178;4.450;2023-05-28T01:58:45;37.63;;;13.18;;
25936;SDS011;13733;51.178;4.450;2023-05-28T02:01:16;30.38;;;12.75;;
25936;SDS011;13733;51.178;4.450;2023-05-28T02:03:44;25.75;;;12.50;;
25936;SDS011;13733;51.178;4.450;2023-05-28T02:06:10;28.83;;;12.80;;
25936;SDS011;13733;51.178;4.450;2023-05-28T02:08:36;32.80;;;13.20;;
25936;SDS011;13733;51.178;4.450;2023-05-28T02:11:01;32.05;;;12.85;;
25936;SDS011;13733;51.178;4.450;2023-05-28T02:13:28;30.50;;;13.70;;
25936;SDS011;13733;51.178;4.450;2023-05-28T02:15:55;34.90;;;14.00;;
25936;SDS011;13733;51.178;4.450;2023-05-28T02:18:21;32.70;;;13.40;;
25936;SDS011;13733;51.178;4.450;2023-05-28T02:20:47;29.25;;;13.68;;
25936;SDS011;13733;51.178;4.450;2023-05-28T02:23:14;30.42;;;14.15;;
25936;SDS011;13733;51.178;4.450;2023-05-28T02:25:40;30.35;;;13.00;;
25936;SDS011;13733;51.178;4.450;2023-05-28T02:28:06;26.25;;;13.75;;
25936;SDS011;13733;51.178;4.450;2023-05-28T02:30:32;29.00;;;15.18;;
25936;SDS011;13733;51.178;4.450;2023-05-28T02:32:57;30.95;;;13.80;;
25936;SDS011;13733;51.178;4.450;2023-05-28T02:35:23;33.30;;;13.77;;
25936;SDS011;13733;51.178;4.450;2023-05-28T02:37:49;30.08;;;13.73;;
25936;SDS011;13733;51.178;4.450;2023-05-28T02:40:15;34.20;;;13.93;;
25936;SDS011;13733;51.178;4.450;2023-05-28T02:42:41;35.88;;;15.35;;
25936;SDS011;13733;51.178;4.450;2023-05-28T02:45:07;36.25;;;14.23;;
25936;SDS011;13733;51.178;4.450;2023-05-28T02:47:33;31.10;;;14.52;;
25936;SDS011;13733;51.178;4.450;2023-05-28T02:49:59;34.75;;;14.43;;
25936;SDS011;13733;51.178;4.450;2023-05-28T02:52:29;31.23;;;14.77;;
25936;SDS011;13733;51.178;4.450;2023-05-28T02:54:56;34.00;;;14.68;;
25936;SDS011;13733;51.178;4.450;2023-05-28T02:57:23;27.65;;;13.90;;
25936;SDS011;13733;51.178;4.450;2023-05-28T02:59:49;28.00;;;14.40;;
25936;SDS011;13733;51.178;4.450;2023-05-28T03:02:16;29.67;;;14.38;;
25936;SDS011;13733;51.178;4.450;2023-05-28T03:04:42;26.02;;;14.10;;
25936;SDS011;13733;51.178;4.450;2023-05-28T03:07:08;35.78;;;14.82;;
25936;SDS011;13733;51.178;4.450;2023-05-28T03:09:35;30.58;;;14.80;;
25936;SDS011;13733;51.178;4.450;2023-05-28T03:12:02;28.98;;;14.80;;
25936;SDS011;13733;51.178;4.450;2023-05-28T03:14:28;34.00;;;14.45;;
25936;SDS011;13733;51.178;4.450;2023-05-28T03:16:53;30.25;;;14.07;;
25936;SDS011;13733;51.178;4.450;2023-05-28T03:19:22;33.40;;;14.55;;
25936;SDS011;13733;51.178;4.450;2023-05-28T03:21:48;25.92;;;14.52;;
25936;SDS011;13733;51.178;4.450;2023-05-28T03:24:17;31.77;;;14.65;;
25936;SDS011;13733;51.178;4.450;2023-05-28T03:26:46;33.90;;;14.95;;
25936;SDS011;13733;51.178;4.450;2023-05-28T03:29:16;31.92;;;15.30;;
25936;SDS011;13733;51.178;4.450;2023-05-28T03:32:14;26.90;;;14.43;;
25936;SDS011;13733;51.178;4.450;2023-05-28T03:34:40;32.47;;;15.55;;
25936;SDS011;13733;51.178;4.450;2023-05-28T03:37:06;36.40;;;14.68;;
25936;SDS011;13733;51.178;4.450;2023-05-28T03:39:34;28.20;;;15.38;;
25936;SDS011;13733;51.178;4.450;2023-05-28T03:42:00;29.70;;;15.07;;
25936;SDS011;13733;51.178;4.450;2023-05-28T03:44:28;34.42;;;14.70;;
25936;SDS011;13733;51.178;4.450;2023-05-28T03:46:54;30.88;;;14.52;;
25936;SDS011;13733;51.178;4.450;2023-05-28T03:49:20;28.88;;;14.77;;
25936;SDS011;13733;51.178;4.450;2023-05-28T03:51:45;34.33;;;15.23;;
25936;SDS011;13733;51.178;4.450;2023-05-28T03:54:11;31.52;;;15.50;;
25936;SDS011;13733;51.178;4.450;2023-05-28T03:56:37;33.60;;;15.48;;
25936;SDS011;13733;51.178;4.450;2023-05-28T03:59:05;27.50;;;14.75;;
25936;SDS011;13733;51.178;4.450;2023-05-28T04:01:30;35.58;;;15.15;;
25936;SDS011;13733;51.178;4.450;2023-05-28T04:03:56;27.40;;;14.45;;
25936;SDS011;13733;51.178;4.450;2023-05-28T04:06:23;35.78;;;15.27;;
25936;SDS011;13733;51.178;4.450;2023-05-28T04:08:50;28.63;;;13.80;;
25936;SDS011;13733;51.178;4.450;2023-05-28T04:11:17;30.85;;;14.68;;
25936;SDS011;13733;51.178;4.450;2023-05-28T04:13:43;27.60;;;15.20;;
25936;SDS011;13733;51.178;4.450;2023-05-28T04:16:09;33.00;;;14.55;;
25936;SDS011;13733;51.178;4.450;2023-05-28T04:18:34;32.10;;;13.90;;
25936;SDS011;13733;51.178;4.450;2023-05-28T04:21:01;29.02;;;14.80;;
25936;SDS011;13733;51.178;4.450;2023-05-28T04:23:27;28.58;;;14.57;;
25936;SDS011;13733;51.178;4.450;2023-05-28T04:25:53;28.92;;;14.30;;
25936;SDS011;13733;51.178;4.450;2023-05-28T04:28:19;28.30;;;13.98;;
25936;SDS011;13733;51.178;4.450;2023-05-28T04:30:45;33.70;;;13.63;;
25936;SDS011;13733;51.178;4.450;2023-05-28T04:33:11;33.35;;;14.88;;
25936;SDS011;13733;51.178;4.450;2023-05-28T04:35:37;31.55;;;14.20;;
25936;SDS011;13733;51.178;4.450;2023-05-28T04:38:03;27.88;;;14.50;;
25936;SDS011;13733;51.178;4.450;2023-05-28T04:40:29;29.40;;;14.75;;
25936;SDS011;13733;51.178;4.450;2023-05-28T04:42:55;28.38;;;13.93;;
25936;SDS011;13733;51.178;4.450;2023-05-28T04:45:24;31.20;;;14.02;;
25936;SDS011;13733;51.178;4.450;2023-05-28T04:47:49;30.02;;;13.43;;
25936;SDS011;13733;51.178;4.450;2023-05-28T04:50:17;31.23;;;14.18;;
25936;SDS011;13733;51.178;4.450;2023-05-28T04:52:43;25.65;;;12.82;;
25936;SDS011;13733;51.178;4.450;2023-05-28T04:55:09;29.02;;;12.70;;
25936;SDS011;13733;51.178;4.450;2023-05-28T04:57:37;28.17;;;13.20;;
25936;SDS011;13733;51.178;4.450;2023-05-28T05:00:06;31.45;;;13.07;;
25936;SDS011;13733;51.178;4.450;2023-05-28T05:02:38;23.85;;;12.88;;
25936;SDS011;13733;51.178;4.450;2023-05-28T05:05:05;28.70;;;12.65;;
25936;SDS011;13733;51.178;4.450;2023-05-28T05:07:34;32.75;;;12.30;;
25936;SDS011;13733;51.178;4.450;2023-05-28T05:10:02;27.45;;;12.07;;
25936;SDS011;13733;51.178;4.450;2023-05-28T05:12:31;25.30;;;11.43;;
25936;SDS011;13733;51.178;4.450;2023-05-28T05:14:57;24.23;;;11.43;;
25936;SDS011;13733;51.178;4.450;2023-05-28T05:17:22;26.98;;;11.63;;
25936;SDS011;13733;51.178;4.450;2023-05-28T05:19:49;25.95;;;12.13;;
25936;SDS011;13733;51.178;4.450;2023-05-28T05:22:15;27.60;;;12.10;;
25936;SDS011;13733;51.178;4.450;2023-05-28T05:24:42;28.67;;;11.95;;
25936;SDS011;13733;51.178;4.450;2023-05-28T05:27:07;23.13;;;11.35;;
25936;SDS011;13733;51.178;4.450;2023-05-28T05:29:33;28.20;;;11.30;;
25936;SDS011;13733;51.178;4.450;2023-05-28T05:31:59;29.27;;;10.98;;
25936;SDS011;13733;51.178;4.450;2023-05-28T05:34:25;27.02;;;10.75;;
25936;SDS011;13733;51.178;4.450;2023-05-28T05:36:53;22.90;;;11.25;;
25936;SDS011;13733;51.178;4.450;2023-05-28T05:39:19;26.83;;;11.32;;
25936;SDS011;13733;51.178;4.450;2023-05-28T05:42:04;24.25;;;11.23;;
25936;SDS011;13733;51.178;4.450;2023-05-28T05:44:37;23.33;;;11.00;;
25936;SDS011;13733;51.178;4.450;2023-05-28T05:47:04;24.00;;;11.02;;
25936;SDS011;13733;51.178;4.450;2023-05-28T05:49:31;23.27;;;12.00;;
25936;SDS011;13733;51.178;4.450;2023-05-28T05:51:58;26.77;;;11.30;;
25936;SDS011;13733;51.178;4.450;2023-05-28T05:54:25;27.15;;;11.05;;
25936;SDS011;13733;51.178;4.450;2023-05-28T05:56:51;19.08;;;10.55;;
25936;SDS011;13733;51.178;4.450;2023-05-28T05:59:21;22.02;;;10.15;;
25936;SDS011;13733;51.178;4.450;2023-05-28T06:01:46;23.05;;;11.00;;
25936;SDS011;13733;51.178;4.450;2023-05-28T06:04:13;21.95;;;10.20;;
25936;SDS011;13733;51.178;4.450;2023-05-28T06:07:07;23.48;;;10.02;;
25936;SDS011;13733;51.178;4.450;2023-05-28T06:09:42;23.02;;;10.48;;
25936;SDS011;13733;51.178;4.450;2023-05-28T06:12:14;22.85;;;10.18;;
25936;SDS011;13733;51.178;4.450;2023-05-28T06:14:41;19.23;;;9.70;;
25936;SDS011;13733;51.178;4.450;2023-05-28T06:17:06;21.60;;;10.02;;
25936;SDS011;13733;51.178;4.450;2023-05-28T06:19:34;27.17;;;10.30;;
25936;SDS011;13733;51.178;4.450;2023-05-28T06:22:02;21.88;;;9.98;;
25936;SDS011;13733;51.178;4.450;2023-05-28T06:24:29;28.40;;;10.25;;
25936;SDS011;13733;51.178;4.450;2023-05-28T06:26:54;24.40;;;9.65;;
25936;SDS011;13733;51.178;4.450;2023-05-28T06:29:20;21.08;;;9.93;;
25936;SDS011;13733;51.178;4.450;2023-05-28T06:31:46;26.25;;;9.48;;
25936;SDS011;13733;51.178;4.450;2023-05-28T06:34:13;25.20;;;10.95;;
25936;SDS011;13733;51.178;4.450;2023-05-28T06:36:39;22.67;;;9.30;;
25936;SDS011;13733;51.178;4.450;2023-05-28T06:39:06;22.48;;;9.52;;
25936;SDS011;13733;51.178;4.450;2023-05-28T06:41:33;19.63;;;8.98;;
25936;SDS011;13733;51.178;4.450;2023-05-28T06:43:59;19.38;;;8.90;;
25936;SDS011;13733;51.178;4.450;2023-05-28T06:46:44;23.27;;;9.98;;
25936;SDS011;13733;51.178;4.450;2023-05-28T06:49:12;23.50;;;9.15;;
25936;SDS011;13733;51.178;4.450;2023-05-28T06:51:39;27.30;;;8.85;;
25936;SDS011;13733;51.178;4.450;2023-05-28T06:54:05;26.55;;;9.00;;
25936;SDS011;13733;51.178;4.450;2023-05-28T06:56:31;23.98;;;9.98;;
25936;SDS011;13733;51.178;4.450;2023-05-28T06:59:20;23.27;;;9.38;;
25936;SDS011;13733;51.178;4.450;2023-05-28T07:02:05;17.30;;;8.25;;
25936;SDS011;13733;51.178;4.450;2023-05-28T07:04:43;22.00;;;9.10;;
25936;SDS011;13733;51.178;4.450;2023-05-28T07:07:15;19.40;;;9.18;;
25936;SDS011;13733;51.178;4.450;2023-05-28T07:09:41;21.90;;;9.98;;
25936;SDS011;13733;51.178;4.450;2023-05-28T07:12:07;20.20;;;9.15;;
25936;SDS011;13733;51.178;4.450;2023-05-28T07:14:36;22.40;;;9.25;;
25936;SDS011;13733;51.178;4.450;2023-05-28T07:17:02;24.77;;;9.65;;
25936;SDS011;13733;51.178;4.450;2023-05-28T07:19:28;27.25;;;9.25;;
25936;SDS011;13733;51.178;4.450;2023-05-28T07:21:56;26.23;;;9.65;;
25936;SDS011;13733;51.178;4.450;2023-05-28T07:24:23;20.90;;;8.52;;
25936;SDS011;13733;51.178;4.450;2023-05-28T07:26:49;18.98;;;8.13;;
25936;SDS011;13733;51.178;4.450;2023-05-28T07:29:15;23.63;;;8.85;;
25936;SDS011;13733;51.178;4.450;2023-05-28T07:31:43;20.88;;;8.43;;
25936;SDS011;13733;51.178;4.450;2023-05-28T07:34:09;23.67;;;8.50;;
25936;SDS011;13733;51.178;4.450;2023-05-28T07:36:37;20.25;;;8.05;;
25936;SDS011;13733;51.178;4.450;2023-05-28T07:39:03;20.27;;;8.55;;
25936;SDS011;13733;51.178;4.450;2023-05-28T07:41:30;22.00;;;8.30;;
25936;SDS011;13733;51.178;4.450;2023-05-28T07:44:11;18.42;;;8.02;;
25936;SDS011;13733;51.178;4.450;2023-05-28T07:46:37;20.08;;;8.70;;
25936;SDS011;13733;51.178;4.450;2023-05-28T07:49:15;18.77;;;7.85;;
25936;SDS011;13733;51.178;4.450;2023-05-28T07:51:44;15.48;;;7.80;;
25936;SDS011;13733;51.178;4.450;2023-05-28T07:54:16;15.43;;;7.43;;
25936;SDS011;13733;51.178;4.450;2023-05-28T07:56:42;20.35;;;7.72;;
25936;SDS011;13733;51.178;4.450;2023-05-28T07:59:12;16.38;;;7.80;;
25936;SDS011;13733;51.178;4.450;2023-05-28T08:01:38;20.95;;;7.20;;
25936;SDS011;13733;51.178;4.450;2023-05-28T08:04:05;16.80;;;7.82;;
25936;SDS011;13733;51.178;4.450;2023-05-28T08:06:34;17.08;;;6.93;;
25936;SDS011;13733;51.178;4.450;2023-05-28T08:09:03;19.20;;;7.13;;
25936;SDS011;13733;51.178;4.450;2023-05-28T08:11:29;15.52;;;6.28;;
25936;SDS011;13733;51.178;4.450;2023-05-28T08:13:55;13.90;;;6.07;;
25936;SDS011;13733;51.178;4.450;2023-05-28T08:16:22;12.88;;;5.80;;
25936;SDS011;13733;51.178;4.450;2023-05-28T08:19:17;16.75;;;6.40;;
25936;SDS011;13733;51.178;4.450;2023-05-28T08:21:45;17.13;;;5.85;;
25936;SDS011;13733;51.178;4.450;2023-05-28T08:24:11;15.50;;;6.18;;
25936;SDS011;13733;51.178;4.450;2023-05-28T08:26:39;15.80;;;6.20;;
25936;SDS011;13733;51.178;4.450;2023-05-28T08:29:05;14.80;;;6.38;;
25936;SDS011;13733;51.178;4.450;2023-05-28T08:31:36;14.95;;;6.28;;
25936;SDS011;13733;51.178;4.450;2023-05-28T08:34:16;14.13;;;5.85;;
25936;SDS011;13733;51.178;4.450;2023-05-28T08:36:44;12.60;;;5.63;;
25936;SDS011;13733;51.178;4.450;2023-05-28T08:41:42;14.15;;;5.65;;
25936;SDS011;13733;51.178;4.450;2023-05-28T08:44:09;12.90;;;4.93;;
25936;SDS011;13733;51.178;4.450;2023-05-28T08:46:37;14.23;;;5.57;;
25936;SDS011;13733;51.178;4.450;2023-05-28T08:49:17;15.77;;;5.88;;
25936;SDS011;13733;51.178;4.450;2023-05-28T08:51:46;15.13;;;5.75;;
25936;SDS011;13733;51.178;4.450;2023-05-28T08:54:20;14.65;;;5.97;;
25936;SDS011;13733;51.178;4.450;2023-05-28T08:56:46;13.82;;;5.70;;
25936;SDS011;13733;51.178;4.450;2023-05-28T08:59:13;15.75;;;5.78;;
25936;SDS011;13733;51.178;4.450;2023-05-28T09:01:41;13.18;;;4.95;;
25936;SDS011;13733;51.178;4.450;2023-05-28T09:04:11;16.00;;;5.78;;
25936;SDS011;13733;51.178;4.450;2023-05-28T09:06:40;21.00;;;5.55;;
25936;SDS011;13733;51.178;4.450;2023-05-28T09:09:13;13.63;;;5.72;;
25936;SDS011;13733;51.178;4.450;2023-05-28T09:11:48;12.27;;;5.38;;
25936;SDS011;13733;51.178;4.450;2023-05-28T09:14:18;15.85;;;5.93;;
25936;SDS011;13733;51.178;4.450;2023-05-28T09:16:47;12.50;;;5.82;;
25936;SDS011;13733;51.178;4.450;2023-05-28T09:19:17;18.50;;;6.50;;
25936;SDS011;13733;51.178;4.450;2023-05-28T09:21:56;14.45;;;6.78;;
25936;SDS011;13733;51.178;4.450;2023-05-28T09:24:39;14.70;;;5.90;;
25936;SDS011;13733;51.178;4.450;2023-05-28T09:27:32;18.00;;;6.05;;
25936;SDS011;13733;51.178;4.450;2023-05-28T09:30:04;13.80;;;5.32;;
25936;SDS011;13733;51.178;4.450;2023-05-28T09:32:34;14.40;;;5.43;;
25936;SDS011;13733;51.178;4.450;2023-05-28T09:35:00;16.13;;;5.32;;
25936;SDS011;13733;51.178;4.450;2023-05-28T09:37:30;13.45;;;4.70;;
25936;SDS011;13733;51.178;4.450;2023-05-28T09:40:00;13.45;;;5.13;;
25936;SDS011;13733;51.178;4.450;2023-05-28T09:42:35;14.45;;;5.18;;
25936;SDS011;13733;51.178;4.450;2023-05-28T09:45:04;12.45;;;5.53;;
25936;SDS011;13733;51.178;4.450;2023-05-28T09:47:30;13.38;;;5.28;;
25936;SDS011;13733;51.178;4.450;2023-05-28T09:49:56;12.90;;;5.03;;
25936;SDS011;13733;51.178;4.450;2023-05-28T09:52:22;12.45;;;4.80;;
25936;SDS011;13733;51.178;4.450;2023-05-28T09:54:49;9.52;;;4.72;;
25936;SDS011;13733;51.178;4.450;2023-05-28T09:57:17;11.40;;;4.70;;
25936;SDS011;13733;51.178;4.450;2023-05-28T09:59:48;11.98;;;4.35;;
25936;SDS011;13733;51.178;4.450;2023-05-28T10:02:28;12.88;;;4.60;;
25936;SDS011;13733;51.178;4.450;2023-05-28T10:04:56;11.15;;;4.75;;
25936;SDS011;13733;51.178;4.450;2023-05-28T10:07:26;13.90;;;4.70;;
25936;SDS011;13733;51.178;4.450;2023-05-28T10:09:54;9.75;;;4.70;;
25936;SDS011;13733;51.178;4.450;2023-05-28T10:12:23;10.95;;;4.38;;
25936;SDS011;13733;51.178;4.450;2023-05-28T10:14:53;10.18;;;4.25;;
25936;SDS011;13733;51.178;4.450;2023-05-28T10:17:20;12.65;;;4.53;;
25936;SDS011;13733;51.178;4.450;2023-05-28T10:19:46;13.65;;;5.35;;
25936;SDS011;13733;51.178;4.450;2023-05-28T10:22:13;10.68;;;4.15;;
25936;SDS011;13733;51.178;4.450;2023-05-28T10:24:40;12.77;;;4.43;;
25936;SDS011;13733;51.178;4.450;2023-05-28T10:27:07;12.88;;;4.50;;
25936;SDS011;13733;51.178;4.450;2023-05-28T10:29:41;18.17;;;4.82;;
25936;SDS011;13733;51.178;4.450;2023-05-28T10:32:08;11.70;;;4.72;;
25936;SDS011;13733;51.178;4.450;2023-05-28T10:34:38;13.02;;;5.00;;
25936;SDS011;13733;51.178;4.450;2023-05-28T10:37:06;9.43;;;4.63;;
25936;SDS011;13733;51.178;4.450;2023-05-28T10:39:38;11.35;;;4.88;;
25936;SDS011;13733;51.178;4.450;2023-05-28T10:42:17;13.40;;;4.70;;
25936;SDS011;13733;51.178;4.450;2023-05-28T10:47:31;8.30;;;4.30;;
25936;SDS011;13733;51.178;4.450;2023-05-28T10:50:17;10.57;;;4.45;;
25936;SDS011;13733;51.178;4.450;2023-05-28T10:53:28;11.15;;;4.05;;
25936;SDS011;13733;51.178;4.450;2023-05-28T10:55:49;11.02;;;4.40;;
25936;SDS011;13733;51.178;4.450;2023-05-28T10:58:27;11.85;;;4.55;;
25936;SDS011;13733;51.178;4.450;2023-05-28T11:01:03;12.25;;;4.63;;
25936;SDS011;13733;51.178;4.450;2023-05-28T11:03:39;9.63;;;4.35;;
25936;SDS011;13733;51.178;4.450;2023-05-28T11:06:06;8.45;;;4.55;;
25936;SDS011;13733;51.178;4.450;2023-05-28T11:08:36;10.20;;;4.55;;
25936;SDS011;13733;51.178;4.450;2023-05-28T11:11:14;15.63;;;4.75;;
25936;SDS011;13733;51.178;4.450;2023-05-28T11:13:49;9.80;;;4.57;;
25936;SDS011;13733;51.178;4.450;2023-05-28T11:16:16;11.35;;;4.38;;
25936;SDS011;13733;51.178;4.450;2023-05-28T11:19:02;11.98;;;4.32;;
25936;SDS011;13733;51.178;4.450;2023-05-28T11:21:29;12.35;;;4.35;;
25936;SDS011;13733;51.178;4.450;2023-05-28T11:24:03;8.77;;;4.57;;
25936;SDS011;13733;51.178;4.450;2023-05-28T11:26:33;10.45;;;4.25;;
25936;SDS011;13733;51.178;4.450;2023-05-28T11:28:59;11.75;;;4.82;;
25936;SDS011;13733;51.178;4.450;2023-05-28T11:31:26;9.95;;;4.40;;
25936;SDS011;13733;51.178;4.450;2023-05-28T11:33:51;9.38;;;4.80;;
25936;SDS011;13733;51.178;4.450;2023-05-28T11:36:19;11.48;;;4.70;;
25936;SDS011;13733;51.178;4.450;2023-05-28T11:38:46;15.40;;;5.22;;
25936;SDS011;13733;51.178;4.450;2023-05-28T11:41:12;11.27;;;4.55;;
25936;SDS011;13733;51.178;4.450;2023-05-28T11:43:37;11.55;;;4.35;;
25936;SDS011;13733;51.178;4.450;2023-05-28T11:46:04;9.00;;;4.38;;
25936;SDS011;13733;51.178;4.450;2023-05-28T11:48:35;11.23;;;4.70;;
25936;SDS011;13733;51.178;4.450;2023-05-28T11:51:03;9.02;;;4.25;;
25936;SDS011;13733;51.178;4.450;2023-05-28T11:53:40;10.23;;;4.43;;
25936;SDS011;13733;51.178;4.450;2023-05-28T11:56:08;12.77;;;4.72;;
25936;SDS011;13733;51.178;4.450;2023-05-28T11:58:35;9.18;;;4.65;;
25936;SDS011;13733;51.178;4.450;2023-05-28T12:01:12;9.38;;;4.55;;
25936;SDS011;13733;51.178;4.450;2023-05-28T12:03:41;15.38;;;4.57;;
25936;SDS011;13733;51.178;4.450;2023-05-28T12:06:07;7.55;;;4.30;;
25936;SDS011;13733;51.178;4.450;2023-05-28T12:08:33;13.52;;;4.55;;
25936;SDS011;13733;51.178;4.450;2023-05-28T12:11:02;11.88;;;4.25;;
25936;SDS011;13733;51.178;4.450;2023-05-28T12:13:34;13.13;;;4.47;;
25936;SDS011;13733;51.178;4.450;2023-05-28T12:18:38;12.55;;;4.65;;
25936;SDS011;13733;51.178;4.450;2023-05-28T12:21:09;11.68;;;5.28;;
25936;SDS011;13733;51.178;4.450;2023-05-28T12:23:40;7.53;;;4.13;;
25936;SDS011;13733;51.178;4.450;2023-05-28T12:26:09;9.63;;;4.85;;
25936;SDS011;13733;51.178;4.450;2023-05-28T12:28:37;8.68;;;4.55;;
25936;SDS011;13733;51.178;4.450;2023-05-28T12:31:05;10.15;;;4.90;;
25936;SDS011;13733;51.178;4.450;2023-05-28T12:33:31;9.80;;;4.95;;
25936;SDS011;13733;51.178;4.450;2023-05-28T12:35:56;10.25;;;4.55;;
25936;SDS011;13733;51.178;4.450;2023-05-28T12:38:25;8.93;;;4.63;;
25936;SDS011;13733;51.178;4.450;2023-05-28T12:40:51;10.52;;;5.00;;
25936;SDS011;13733;51.178;4.450;2023-05-28T12:43:17;9.52;;;4.90;;
25936;SDS011;13733;51.178;4.450;2023-05-28T12:45:43;13.15;;;4.53;;
25936;SDS011;13733;51.178;4.450;2023-05-28T12:48:09;11.38;;;4.80;;
25936;SDS011;13733;51.178;4.450;2023-05-28T12:50:35;14.77;;;5.05;;
25936;SDS011;13733;51.178;4.450;2023-05-28T12:53:01;8.90;;;4.38;;
25936;SDS011;13733;51.178;4.450;2023-05-28T12:55:29;10.15;;;4.95;;
25936;SDS011;13733;51.178;4.450;2023-05-28T12:57:56;14.80;;;5.18;;
25936;SDS011;13733;51.178;4.450;2023-05-28T13:00:22;8.93;;;4.47;;
25936;SDS011;13733;51.178;4.450;2023-05-28T13:02:49;11.75;;;5.22;;
25936;SDS011;13733;51.178;4.450;2023-05-28T13:05:15;10.13;;;4.60;;
25936;SDS011;13733;51.178;4.450;2023-05-28T13:07:41;13.00;;;4.65;;
25936;SDS011;13733;51.178;4.450;2023-05-28T13:10:08;11.05;;;4.72;;
25936;SDS011;13733;51.178;4.450;2023-05-28T13:12:35;11.05;;;4.80;;
25936;SDS011;13733;51.178;4.450;2023-05-28T13:15:05;9.82;;;4.65;;
25936;SDS011;13733;51.178;4.450;2023-05-28T13:17:32;10.45;;;5.28;;
25936;SDS011;13733;51.178;4.450;2023-05-28T13:19:58;8.93;;;4.28;;
25936;SDS011;13733;51.178;4.450;2023-05-28T13:22:25;11.52;;;5.05;;
25936;SDS011;13733;51.178;4.450;2023-05-28T13:24:50;9.40;;;4.70;;
25936;SDS011;13733;51.178;4.450;2023-05-28T13:27:16;11.35;;;4.90;;
25936;SDS011;13733;51.178;4.450;2023-05-28T13:29:42;10.70;;;4.65;;
25936;SDS011;13733;51.178;4.450;2023-05-28T13:32:08;7.72;;;3.92;;
25936;SDS011;13733;51.178;4.450;2023-05-28T13:34:34;9.02;;;5.05;;
25936;SDS011;13733;51.178;4.450;2023-05-28T13:37:00;10.05;;;4.50;;
25936;SDS011;13733;51.178;4.450;2023-05-28T13:39:26;8.30;;;4.50;;
25936;SDS011;13733;51.178;4.450;2023-05-28T13:41:51;11.25;;;4.57;;
25936;SDS011;13733;51.178;4.450;2023-05-28T13:44:18;11.27;;;4.70;;
25936;SDS011;13733;51.178;4.450;2023-05-28T13:46:44;9.25;;;4.32;;
25936;SDS011;13733;51.178;4.450;2023-05-28T13:49:09;9.98;;;4.97;;
25936;SDS011;13733;51.178;4.450;2023-05-28T13:51:35;9.25;;;4.50;;
25936;SDS011;13733;51.178;4.450;2023-05-28T13:54:04;9.70;;;4.57;;
25936;SDS011;13733;51.178;4.450;2023-05-28T13:56:31;8.60;;;4.93;;
25936;SDS011;13733;51.178;4.450;2023-05-28T13:58:57;7.10;;;4.50;;
25936;SDS011;13733;51.178;4.450;2023-05-28T14:01:22;8.57;;;5.03;;
25936;SDS011;13733;51.178;4.450;2023-05-28T14:03:48;9.38;;;4.65;;
25936;SDS011;13733;51.178;4.450;2023-05-28T14:06:14;8.55;;;4.60;;
25936;SDS011;13733;51.178;4.450;2023-05-28T14:08:40;10.07;;;4.80;;
25936;SDS011;13733;51.178;4.450;2023-05-28T14:11:05;10.85;;;4.72;;
25936;SDS011;13733;51.178;4.450;2023-05-28T14:13:31;11.27;;;4.97;;
25936;SDS011;13733;51.178;4.450;2023-05-28T14:16:00;9.93;;;4.60;;
25936;SDS011;13733;51.178;4.450;2023-05-28T14:18:26;10.40;;;5.18;;
25936;SDS011;13733;51.178;4.450;2023-05-28T14:20:52;12.23;;;4.60;;
25936;SDS011;13733;51.178;4.450;2023-05-28T14:23:18;12.30;;;4.47;;
25936;SDS011;13733;51.178;4.450;2023-05-28T14:25:43;8.65;;;4.88;;
25936;SDS011;13733;51.178;4.450;2023-05-28T14:28:09;9.60;;;4.43;;
25936;SDS011;13733;51.178;4.450;2023-05-28T14:30:35;11.55;;;4.72;;
25936;SDS011;13733;51.178;4.450;2023-05-28T14:33:00;9.02;;;4.78;;
25936;SDS011;13733;51.178;4.450;2023-05-28T14:35:26;14.77;;;5.32;;
25936;SDS011;13733;51.178;4.450;2023-05-28T14:37:52;9.85;;;5.10;;
25936;SDS011;13733;51.178;4.450;2023-05-28T14:40:18;7.55;;;4.53;;
25936;SDS011;13733;51.178;4.450;2023-05-28T14:42:43;8.30;;;4.68;;
25936;SDS011;13733;51.178;4.450;2023-05-28T14:45:10;12.10;;;5.40;;
25936;SDS011;13733;51.178;4.450;2023-05-28T14:47:37;11.48;;;5.18;;